sensor_id;sensor_type;location;lat;lon;timestamp;temperature;humidity
26707;DHT22;14319;49.422;10.934;2023-05-10T00:00:17;16.40;82.50
26707;DHT22;14319;49.422;10.934;2023-05-10T00:02:18;16.40;83.20
26707;DHT22;14319;49.422;10.934;2023-05-10T00:04:18;16.40;83.40
26707;DHT22;14319;49.422;10.934;2023-05-10T00:06:19;16.40;84.60
26707;DHT22;14319;49.422;10.934;2023-05-10T00:08:20;16.30;84.80
26707;DHT22;14319;49.422;10.934;2023-05-10T00:10:21;16.30;85.10
26707;DHT22;14319;49.422;10.934;2023-05-10T00:12:21;16.20;85.40
26707;DHT22;14319;49.422;10.934;2023-05-10T00:14:22;16.30;85.70
26707;DHT22;14319;49.422;10.934;2023-05-10T00:16:22;16.30;85.30
26707;DHT22;14319;49.422;10.934;2023-05-10T00:18:23;16.30;85.90
26707;DHT22;14319;49.422;10.934;2023-05-10T00:20:24;16.30;86.40
26707;DHT22;14319;49.422;10.934;2023-05-10T00:22:24;16.20;86.30
26707;DHT22;14319;49.422;10.934;2023-05-10T00:24:25;16.30;86.60
26707;DHT22;14319;49.422;10.934;2023-05-10T00:26:25;16.30;86.60
26707;DHT22;14319;49.422;10.934;2023-05-10T00:28:29;16.30;87.00
26707;DHT22;14319;49.422;10.934;2023-05-10T00:30:30;16.30;87.20
26707;DHT22;14319;49.422;10.934;2023-05-10T00:32:31;16.30;87.30
26707;DHT22;14319;49.422;10.934;2023-05-10T00:34:32;16.30;86.90
26707;DHT22;14319;49.422;10.934;2023-05-10T00:36:32;16.30;87.30
26707;DHT22;14319;49.422;10.934;2023-05-10T00:38:33;16.20;87.20
26707;DHT22;14319;49.422;10.934;2023-05-10T00:40:35;16.20;87.90
26707;DHT22;14319;49.422;10.934;2023-05-10T00:42:39;16.20;88.00
26707;DHT22;14319;49.422;10.934;2023-05-10T00:44:41;16.20;88.50
26707;DHT22;14319;49.422;10.934;2023-05-10T00:46:42;16.20;88.50
26707;DHT22;14319;49.422;10.934;2023-05-10T00:48:44;16.20;88.70
26707;DHT22;14319;49.422;10.934;2023-05-10T00:50:45;16.20;88.50
26707;DHT22;14319;49.422;10.934;2023-05-10T00:52:46;16.20;88.40
26707;DHT22;14319;49.422;10.934;2023-05-10T00:54:47;16.20;88.80
26707;DHT22;14319;49.422;10.934;2023-05-10T00:56:48;16.20;88.50
26707;DHT22;14319;49.422;10.934;2023-05-10T00:58:50;16.00;89.60
26707;DHT22;14319;49.422;10.934;2023-05-10T01:00:50;16.00;89.70
26707;DHT22;14319;49.422;10.934;2023-05-10T01:02:53;16.00;89.90
26707;DHT22;14319;49.422;10.934;2023-05-10T01:04:54;16.00;89.90
26707;DHT22;14319;49.422;10.934;2023-05-10T01:06:55;16.00;90.10
26707;DHT22;14319;49.422;10.934;2023-05-10T01:08:56;16.00;90.30
26707;DHT22;14319;49.422;10.934;2023-05-10T01:10:57;16.00;90.70
26707;DHT22;14319;49.422;10.934;2023-05-10T01:12:59;16.00;90.30
26707;DHT22;14319;49.422;10.934;2023-05-10T01:15:00;16.00;90.70
26707;DHT22;14319;49.422;10.934;2023-05-10T01:17:02;16.10;90.90
26707;DHT22;14319;49.422;10.934;2023-05-10T01:19:06;16.00;91.20
26707;DHT22;14319;49.422;10.934;2023-05-10T01:21:17;16.00;91.10
26707;DHT22;14319;49.422;10.934;2023-05-10T01:24:14;16.10;90.60
26707;DHT22;14319;49.422;10.934;2023-05-10T01:26:51;16.10;91.30
26707;DHT22;14319;49.422;10.934;2023-05-10T01:29:01;16.10;90.50
26707;DHT22;14319;49.422;10.934;2023-05-10T01:31:35;16.00;90.40
26707;DHT22;14319;49.422;10.934;2023-05-10T01:36:01;16.00;91.00
26707;DHT22;14319;49.422;10.934;2023-05-10T01:42:40;16.00;91.40
26707;DHT22;14319;49.422;10.934;2023-05-10T01:44:51;16.00;92.50
26707;DHT22;14319;49.422;10.934;2023-05-10T01:47:04;16.00;92.30
26707;DHT22;14319;49.422;10.934;2023-05-10T01:49:11;15.90;92.80
26707;DHT22;14319;49.422;10.934;2023-05-10T01:51:19;15.80;92.70
26707;DHT22;14319;49.422;10.934;2023-05-10T01:53:21;15.80;92.00
26707;DHT22;14319;49.422;10.934;2023-05-10T01:55:26;15.70;92.80
26707;DHT22;14319;49.422;10.934;2023-05-10T01:57:33;15.60;93.50
26707;DHT22;14319;49.422;10.934;2023-05-10T01:59:35;15.70;93.70
26707;DHT22;14319;49.422;10.934;2023-05-10T02:01:40;15.70;93.30
26707;DHT22;14319;49.422;10.934;2023-05-10T02:03:41;15.70;92.90
26707;DHT22;14319;49.422;10.934;2023-05-10T02:05:43;15.70;94.30
26707;DHT22;14319;49.422;10.934;2023-05-10T02:07:45;15.70;93.60
26707;DHT22;14319;49.422;10.934;2023-05-10T02:09:47;15.80;92.80
26707;DHT22;14319;49.422;10.934;2023-05-10T02:11:49;15.70;93.10
26707;DHT22;14319;49.422;10.934;2023-05-10T02:13:51;15.70;93.60
26707;DHT22;14319;49.422;10.934;2023-05-10T02:15:54;15.80;93.80
26707;DHT22;14319;49.422;10.934;2023-05-10T02:17:57;15.80;93.60
26707;DHT22;14319;49.422;10.934;2023-05-10T02:19:59;15.80;93.10
26707;DHT22;14319;49.422;10.934;2023-05-10T02:22:01;15.70;93.10
26707;DHT22;14319;49.422;10.934;2023-05-10T02:24:04;15.60;94.70
26707;DHT22;14319;49.422;10.934;2023-05-10T02:26:06;15.50;95.20
26707;DHT22;14319;49.422;10.934;2023-05-10T02:28:08;15.50;95.10
26707;DHT22;14319;49.422;10.934;2023-05-10T02:30:10;15.60;95.00
26707;DHT22;14319;49.422;10.934;2023-05-10T02:32:12;15.60;95.00
26707;DHT22;14319;49.422;10.934;2023-05-10T02:34:13;15.60;94.60
26707;DHT22;14319;49.422;10.934;2023-05-10T02:36:15;15.60;95.40
26707;DHT22;14319;49.422;10.934;2023-05-10T02:38:19;15.40;94.80
26707;DHT22;14319;49.422;10.934;2023-05-10T02:40:21;15.40;95.90
26707;DHT22;14319;49.422;10.934;2023-05-10T02:42:27;15.40;96.20
26707;DHT22;14319;49.422;10.934;2023-05-10T02:44:29;15.30;95.90
26707;DHT22;14319;49.422;10.934;2023-05-10T02:46:31;15.30;96.40
26707;DHT22;14319;49.422;10.934;2023-05-10T02:48:32;15.20;94.80
26707;DHT22;14319;49.422;10.934;2023-05-10T02:50:33;15.20;96.50
26707;DHT22;14319;49.422;10.934;2023-05-10T02:52:43;15.20;96.30
26707;DHT22;14319;49.422;10.934;2023-05-10T02:54:46;15.00;95.30
26707;DHT22;14319;49.422;10.934;2023-05-10T02:56:56;15.10;96.60
26707;DHT22;14319;49.422;10.934;2023-05-10T02:58:57;14.90;96.30
26707;DHT22;14319;49.422;10.934;2023-05-10T03:00:59;14.70;96.80
26707;DHT22;14319;49.422;10.934;2023-05-10T03:03:00;14.50;96.60
26707;DHT22;14319;49.422;10.934;2023-05-10T03:05:02;14.10;99.10
26707;DHT22;14319;49.422;10.934;2023-05-10T03:07:04;14.00;99.30
26707;DHT22;14319;49.422;10.934;2023-05-10T03:09:05;13.90;99.90
26707;DHT22;14319;49.422;10.934;2023-05-10T03:16:08;13.80;99.90
26707;DHT22;14319;49.422;10.934;2023-05-10T03:18:15;13.80;99.90
26707;DHT22;14319;49.422;10.934;2023-05-10T03:20:42;13.90;99.90
26707;DHT22;14319;49.422;10.934;2023-05-10T03:22:53;13.80;99.90
26707;DHT22;14319;49.422;10.934;2023-05-10T03:24:56;14.00;99.90
26707;DHT22;14319;49.422;10.934;2023-05-10T03:27:03;13.80;99.90
26707;DHT22;14319;49.422;10.934;2023-05-10T03:29:06;13.80;99.90
26707;DHT22;14319;49.422;10.934;2023-05-10T03:31:08;13.80;99.90
26707;DHT22;14319;49.422;10.934;2023-05-10T03:33:09;13.70;99.90
26707;DHT22;14319;49.422;10.934;2023-05-10T03:35:13;13.80;99.90
26707;DHT22;14319;49.422;10.934;2023-05-10T03:37:14;14.00;99.90
26707;DHT22;14319;49.422;10.934;2023-05-10T03:39:15;13.80;99.90
26707;DHT22;14319;49.422;10.934;2023-05-10T03:41:17;13.70;99.90
26707;DHT22;14319;49.422;10.934;2023-05-10T03:43:17;13.70;99.90
26707;DHT22;14319;49.422;10.934;2023-05-10T03:45:18;13.60;99.90
26707;DHT22;14319;49.422;10.934;2023-05-10T03:47:19;13.50;99.90
26707;DHT22;14319;49.422;10.934;2023-05-10T03:49:20;13.40;99.90
26707;DHT22;14319;49.422;10.934;2023-05-10T03:51:21;13.40;99.90
26707;DHT22;14319;49.422;10.934;2023-05-10T03:53:22;13.50;99.90
26707;DHT22;14319;49.422;10.934;2023-05-10T03:55:23;13.50;99.90
26707;DHT22;14319;49.422;10.934;2023-05-10T03:57:24;13.60;99.90
26707;DHT22;14319;49.422;10.934;2023-05-10T03:59:25;13.40;99.90
26707;DHT22;14319;49.422;10.934;2023-05-10T04:01:26;13.40;99.90
26707;DHT22;14319;49.422;10.934;2023-05-10T04:03:27;13.40;99.90
26707;DHT22;14319;49.422;10.934;2023-05-10T04:05:27;13.40;99.90
26707;DHT22;14319;49.422;10.934;2023-05-10T04:07:28;13.50;99.90
26707;DHT22;14319;49.422;10.934;2023-05-10T04:09:29;13.70;99.90
26707;DHT22;14319;49.422;10.934;2023-05-10T04:11:30;13.60;99.90
26707;DHT22;14319;49.422;10.934;2023-05-10T04:13:30;13.80;99.90
26707;DHT22;14319;49.422;10.934;2023-05-10T04:15:31;13.60;99.00
26707;DHT22;14319;49.422;10.934;2023-05-10T04:17:32;13.60;97.90
26707;DHT22;14319;49.422;10.934;2023-05-10T04:19:33;13.50;98.60
26707;DHT22;14319;49.422;10.934;2023-05-10T04:21:33;13.40;99.50
26707;DHT22;14319;49.422;10.934;2023-05-10T04:23:34;13.30;99.50
26707;DHT22;14319;49.422;10.934;2023-05-10T04:25:34;13.20;99.90
26707;DHT22;14319;49.422;10.934;2023-05-10T04:27:35;13.20;99.90
26707;DHT22;14319;49.422;10.934;2023-05-10T04:29:36;13.30;99.90
26707;DHT22;14319;49.422;10.934;2023-05-10T04:31:37;13.20;99.60
26707;DHT22;14319;49.422;10.934;2023-05-10T04:33:37;13.20;99.90
26707;DHT22;14319;49.422;10.934;2023-05-10T04:35:38;13.10;99.90
26707;DHT22;14319;49.422;10.934;2023-05-10T04:37:40;13.20;99.90
26707;DHT22;14319;49.422;10.934;2023-05-10T04:39:40;13.10;99.90
26707;DHT22;14319;49.422;10.934;2023-05-10T04:41:41;13.10;99.90
26707;DHT22;14319;49.422;10.934;2023-05-10T04:43:41;13.10;99.90
26707;DHT22;14319;49.422;10.934;2023-05-10T04:45:42;13.00;99.90
26707;DHT22;14319;49.422;10.934;2023-05-10T04:47:43;13.10;99.90
26707;DHT22;14319;49.422;10.934;2023-05-10T04:49:43;13.20;99.90
26707;DHT22;14319;49.422;10.934;2023-05-10T04:51:44;13.10;99.90
26707;DHT22;14319;49.422;10.934;2023-05-10T04:53:44;13.10;99.90
26707;DHT22;14319;49.422;10.934;2023-05-10T04:55:45;13.30;99.90
26707;DHT22;14319;49.422;10.934;2023-05-10T04:57:47;13.30;99.90
26707;DHT22;14319;49.422;10.934;2023-05-10T04:59:47;13.40;99.90
26707;DHT22;14319;49.422;10.934;2023-05-10T05:01:48;13.20;98.50
26707;DHT22;14319;49.422;10.934;2023-05-10T05:03:48;13.20;98.00
26707;DHT22;14319;49.422;10.934;2023-05-10T05:05:49;13.20;98.00
26707;DHT22;14319;49.422;10.934;2023-05-10T05:07:50;13.20;97.10
26707;DHT22;14319;49.422;10.934;2023-05-10T05:09:50;13.20;97.10
26707;DHT22;14319;49.422;10.934;2023-05-10T05:11:51;13.20;98.30
26707;DHT22;14319;49.422;10.934;2023-05-10T05:13:52;13.10;98.10
26707;DHT22;14319;49.422;10.934;2023-05-10T05:15:52;13.20;99.20
26707;DHT22;14319;49.422;10.934;2023-05-10T05:17:53;13.30;97.00
26707;DHT22;14319;49.422;10.934;2023-05-10T05:19:54;13.50;97.80
26707;DHT22;14319;49.422;10.934;2023-05-10T05:21:55;13.70;97.90
26707;DHT22;14319;49.422;10.934;2023-05-10T05:23:55;13.50;96.40
26707;DHT22;14319;49.422;10.934;2023-05-10T05:25:56;13.40;95.10
26707;DHT22;14319;49.422;10.934;2023-05-10T05:27:56;13.20;95.80
26707;DHT22;14319;49.422;10.934;2023-05-10T05:29:57;13.20;95.70
26707;DHT22;14319;49.422;10.934;2023-05-10T05:31:58;13.20;95.00
26707;DHT22;14319;49.422;10.934;2023-05-10T05:33:59;13.20;95.80
26707;DHT22;14319;49.422;10.934;2023-05-10T05:36:04;13.20;95.70
26707;DHT22;14319;49.422;10.934;2023-05-10T05:38:05;13.30;95.60
26707;DHT22;14319;49.422;10.934;2023-05-10T05:40:06;13.30;94.70
26707;DHT22;14319;49.422;10.934;2023-05-10T05:42:08;13.10;95.60
26707;DHT22;14319;49.422;10.934;2023-05-10T05:44:08;13.20;95.00
26707;DHT22;14319;49.422;10.934;2023-05-10T05:46:09;13.20;94.50
26707;DHT22;14319;49.422;10.934;2023-05-10T05:48:09;13.10;95.60
26707;DHT22;14319;49.422;10.934;2023-05-10T05:50:10;13.10;95.60
26707;DHT22;14319;49.422;10.934;2023-05-10T05:52:10;13.10;95.10
26707;DHT22;14319;49.422;10.934;2023-05-10T05:54:11;13.20;96.80
26707;DHT22;14319;49.422;10.934;2023-05-10T05:56:12;13.20;96.00
26707;DHT22;14319;49.422;10.934;2023-05-10T05:58:12;13.30;96.50
26707;DHT22;14319;49.422;10.934;2023-05-10T06:00:13;13.30;97.10
26707;DHT22;14319;49.422;10.934;2023-05-10T06:02:14;13.30;96.50
26707;DHT22;14319;49.422;10.934;2023-05-10T06:04:15;13.30;95.90
26707;DHT22;14319;49.422;10.934;2023-05-10T06:06:15;13.40;95.80
26707;DHT22;14319;49.422;10.934;2023-05-10T06:08:16;13.30;95.50
26707;DHT22;14319;49.422;10.934;2023-05-10T06:10:16;13.40;96.60
26707;DHT22;14319;49.422;10.934;2023-05-10T06:12:17;13.60;97.70
26707;DHT22;14319;49.422;10.934;2023-05-10T06:14:20;13.70;95.40
26707;DHT22;14319;49.422;10.934;2023-05-10T06:16:21;13.60;94.90
26707;DHT22;14319;49.422;10.934;2023-05-10T06:18:21;13.60;95.00
26707;DHT22;14319;49.422;10.934;2023-05-10T06:20:22;13.60;97.00
26707;DHT22;14319;49.422;10.934;2023-05-10T06:22:22;13.50;94.30
26707;DHT22;14319;49.422;10.934;2023-05-10T06:24:23;13.50;94.80
26707;DHT22;14319;49.422;10.934;2023-05-10T06:26:24;13.60;95.20
26707;DHT22;14319;49.422;10.934;2023-05-10T06:28:25;13.70;95.10
26707;DHT22;14319;49.422;10.934;2023-05-10T06:30:25;13.80;94.60
26707;DHT22;14319;49.422;10.934;2023-05-10T06:32:28;13.90;94.20
26707;DHT22;14319;49.422;10.934;2023-05-10T06:34:29;14.00;91.90
26707;DHT22;14319;49.422;10.934;2023-05-10T06:36:30;14.20;93.50
26707;DHT22;14319;49.422;10.934;2023-05-10T06:38:31;14.30;93.10
26707;DHT22;14319;49.422;10.934;2023-05-10T06:40:31;14.10;92.10
26707;DHT22;14319;49.422;10.934;2023-05-10T06:42:33;13.90;91.00
26707;DHT22;14319;49.422;10.934;2023-05-10T06:44:33;13.90;91.40
26707;DHT22;14319;49.422;10.934;2023-05-10T06:46:34;13.90;91.10
26707;DHT22;14319;49.422;10.934;2023-05-10T06:48:35;14.00;92.20
26707;DHT22;14319;49.422;10.934;2023-05-10T06:50:36;14.10;90.10
26707;DHT22;14319;49.422;10.934;2023-05-10T06:52:36;14.10;90.60
26707;DHT22;14319;49.422;10.934;2023-05-10T06:54:37;14.20;91.90
26707;DHT22;14319;49.422;10.934;2023-05-10T06:56:37;14.20;89.30
26707;DHT22;14319;49.422;10.934;2023-05-10T06:58:38;14.20;88.90
26707;DHT22;14319;49.422;10.934;2023-05-10T07:00:39;14.00;89.20
26707;DHT22;14319;49.422;10.934;2023-05-10T07:02:40;14.20;89.10
26707;DHT22;14319;49.422;10.934;2023-05-10T07:04:41;14.10;88.20
26707;DHT22;14319;49.422;10.934;2023-05-10T07:06:41;14.00;87.80
26707;DHT22;14319;49.422;10.934;2023-05-10T07:08:42;14.10;90.30
26707;DHT22;14319;49.422;10.934;2023-05-10T07:10:43;14.00;88.70
26707;DHT22;14319;49.422;10.934;2023-05-10T07:12:44;14.10;89.50
26707;DHT22;14319;49.422;10.934;2023-05-10T07:14:44;14.30;89.70
26707;DHT22;14319;49.422;10.934;2023-05-10T07:16:45;14.40;90.30
26707;DHT22;14319;49.422;10.934;2023-05-10T07:18:46;14.40;87.70
26707;DHT22;14319;49.422;10.934;2023-05-10T07:20:47;14.20;87.60
26707;DHT22;14319;49.422;10.934;2023-05-10T07:22:47;14.10;86.90
26707;DHT22;14319;49.422;10.934;2023-05-10T07:24:48;14.20;89.60
26707;DHT22;14319;49.422;10.934;2023-05-10T07:26:48;14.20;87.00
26707;DHT22;14319;49.422;10.934;2023-05-10T07:28:49;14.40;89.70
26707;DHT22;14319;49.422;10.934;2023-05-10T07:30:50;14.60;89.10
26707;DHT22;14319;49.422;10.934;2023-05-10T07:32:50;14.60;88.60
26707;DHT22;14319;49.422;10.934;2023-05-10T07:34:51;14.80;88.50
26707;DHT22;14319;49.422;10.934;2023-05-10T07:36:52;14.80;87.50
26707;DHT22;14319;49.422;10.934;2023-05-10T07:38:52;14.70;86.80
26707;DHT22;14319;49.422;10.934;2023-05-10T07:40:53;14.70;86.70
26707;DHT22;14319;49.422;10.934;2023-05-10T07:42:54;14.90;87.70
26707;DHT22;14319;49.422;10.934;2023-05-10T07:44:54;14.90;85.10
26707;DHT22;14319;49.422;10.934;2023-05-10T07:46:55;14.60;84.00
26707;DHT22;14319;49.422;10.934;2023-05-10T07:48:56;14.40;84.80
26707;DHT22;14319;49.422;10.934;2023-05-10T07:50:56;14.50;86.80
26707;DHT22;14319;49.422;10.934;2023-05-10T07:52:57;14.60;86.20
26707;DHT22;14319;49.422;10.934;2023-05-10T07:54:58;14.60;85.90
26707;DHT22;14319;49.422;10.934;2023-05-10T07:57:00;14.70;84.80
26707;DHT22;14319;49.422;10.934;2023-05-10T07:59:02;14.60;85.50
26707;DHT22;14319;49.422;10.934;2023-05-10T08:01:04;14.60;84.60
26707;DHT22;14319;49.422;10.934;2023-05-10T08:03:04;14.50;85.60
26707;DHT22;14319;49.422;10.934;2023-05-10T08:05:05;14.60;85.40
26707;DHT22;14319;49.422;10.934;2023-05-10T08:07:06;14.60;85.10
26707;DHT22;14319;49.422;10.934;2023-05-10T08:09:07;14.60;85.50
26707;DHT22;14319;49.422;10.934;2023-05-10T08:11:07;14.60;84.60
26707;DHT22;14319;49.422;10.934;2023-05-10T08:13:08;14.70;84.50
26707;DHT22;14319;49.422;10.934;2023-05-10T08:15:09;14.90;85.40
26707;DHT22;14319;49.422;10.934;2023-05-10T08:17:10;15.10;84.10
26707;DHT22;14319;49.422;10.934;2023-05-10T08:19:10;15.30;86.00
26707;DHT22;14319;49.422;10.934;2023-05-10T08:21:11;15.60;85.00
26707;DHT22;14319;49.422;10.934;2023-05-10T08:23:14;15.70;84.00
26707;DHT22;14319;49.422;10.934;2023-05-10T08:25:15;15.90;83.60
26707;DHT22;14319;49.422;10.934;2023-05-10T08:27:16;15.90;81.90
26707;DHT22;14319;49.422;10.934;2023-05-10T08:29:17;15.90;80.70
26707;DHT22;14319;49.422;10.934;2023-05-10T08:31:17;15.90;82.10
26707;DHT22;14319;49.422;10.934;2023-05-10T08:33:18;15.90;81.70
26707;DHT22;14319;49.422;10.934;2023-05-10T08:35:19;15.80;81.30
26707;DHT22;14319;49.422;10.934;2023-05-10T08:37:19;15.80;82.00
26707;DHT22;14319;49.422;10.934;2023-05-10T08:39:20;15.70;81.80
26707;DHT22;14319;49.422;10.934;2023-05-10T08:41:21;15.60;83.60
26707;DHT22;14319;49.422;10.934;2023-05-10T08:43:27;15.40;83.10
26707;DHT22;14319;49.422;10.934;2023-05-10T08:45:32;15.30;87.30
26707;DHT22;14319;49.422;10.934;2023-05-10T08:47:36;15.00;88.00
26707;DHT22;14319;49.422;10.934;2023-05-10T08:49:38;14.80;89.10
26707;DHT22;14319;49.422;10.934;2023-05-10T08:51:43;14.40;89.80
26707;DHT22;14319;49.422;10.934;2023-05-10T08:53:47;14.20;90.20
26707;DHT22;14319;49.422;10.934;2023-05-10T08:55:48;14.30;90.90
26707;DHT22;14319;49.422;10.934;2023-05-10T08:57:49;14.40;94.10
26707;DHT22;14319;49.422;10.934;2023-05-10T08:59:49;14.40;90.70
26707;DHT22;14319;49.422;10.934;2023-05-10T09:01:50;14.60;91.90
26707;DHT22;14319;49.422;10.934;2023-05-10T09:03:51;14.80;91.50
26707;DHT22;14319;49.422;10.934;2023-05-10T09:05:52;14.90;88.30
26707;DHT22;14319;49.422;10.934;2023-05-10T09:07:53;14.90;89.70
26707;DHT22;14319;49.422;10.934;2023-05-10T09:09:54;14.90;88.20
26707;DHT22;14319;49.422;10.934;2023-05-10T09:11:55;14.80;85.80
26707;DHT22;14319;49.422;10.934;2023-05-10T09:13:56;14.90;87.80
26707;DHT22;14319;49.422;10.934;2023-05-10T09:15:56;15.00;87.60
26707;DHT22;14319;49.422;10.934;2023-05-10T09:17:58;15.00;87.10
26707;DHT22;14319;49.422;10.934;2023-05-10T09:20:05;15.20;88.00
26707;DHT22;14319;49.422;10.934;2023-05-10T09:22:05;15.20;86.10
26707;DHT22;14319;49.422;10.934;2023-05-10T09:24:08;15.40;86.60
26707;DHT22;14319;49.422;10.934;2023-05-10T09:26:08;15.50;87.10
26707;DHT22;14319;49.422;10.934;2023-05-10T09:28:09;15.80;83.30
26707;DHT22;14319;49.422;10.934;2023-05-10T09:30:11;15.60;86.80
26707;DHT22;14319;49.422;10.934;2023-05-10T09:32:15;15.40;84.10
26707;DHT22;14319;49.422;10.934;2023-05-10T09:34:18;15.30;81.20
26707;DHT22;14319;49.422;10.934;2023-05-10T09:36:19;15.40;82.00
26707;DHT22;14319;49.422;10.934;2023-05-10T09:38:19;15.60;82.90
26707;DHT22;14319;49.422;10.934;2023-05-10T09:40:25;15.90;83.90
26707;DHT22;14319;49.422;10.934;2023-05-10T09:42:25;15.90;79.90
26707;DHT22;14319;49.422;10.934;2023-05-10T09:44:26;15.90;81.40
26707;DHT22;14319;49.422;10.934;2023-05-10T09:46:27;15.90;78.70
26707;DHT22;14319;49.422;10.934;2023-05-10T09:48:28;15.80;77.90
26707;DHT22;14319;49.422;10.934;2023-05-10T09:50:29;16.00;81.20
26707;DHT22;14319;49.422;10.934;2023-05-10T09:52:31;16.10;81.00
26707;DHT22;14319;49.422;10.934;2023-05-10T09:54:52;16.10;80.70
26707;DHT22;14319;49.422;10.934;2023-05-10T09:56:53;16.00;76.40
26707;DHT22;14319;49.422;10.934;2023-05-10T09:59:02;16.00;77.10
26707;DHT22;14319;49.422;10.934;2023-05-10T10:01:03;16.00;74.30
26707;DHT22;14319;49.422;10.934;2023-05-10T10:03:04;16.10;75.30
26707;DHT22;14319;49.422;10.934;2023-05-10T10:05:06;16.00;75.00
26707;DHT22;14319;49.422;10.934;2023-05-10T10:07:07;16.20;76.80
26707;DHT22;14319;49.422;10.934;2023-05-10T10:09:08;16.10;76.80
26707;DHT22;14319;49.422;10.934;2023-05-10T10:11:09;16.30;76.70
26707;DHT22;14319;49.422;10.934;2023-05-10T10:13:10;16.50;76.00
26707;DHT22;14319;49.422;10.934;2023-05-10T10:15:11;16.40;76.10
26707;DHT22;14319;49.422;10.934;2023-05-10T10:17:12;16.50;73.40
26707;DHT22;14319;49.422;10.934;2023-05-10T10:19:13;16.50;72.70
26707;DHT22;14319;49.422;10.934;2023-05-10T10:21:14;16.60;74.00
26707;DHT22;14319;49.422;10.934;2023-05-10T10:23:15;16.70;72.40
26707;DHT22;14319;49.422;10.934;2023-05-10T10:25:17;16.70;71.10
26707;DHT22;14319;49.422;10.934;2023-05-10T10:27:26;16.30;72.10
26707;DHT22;14319;49.422;10.934;2023-05-10T10:29:43;16.50;75.10
26707;DHT22;14319;49.422;10.934;2023-05-10T10:32:17;16.70;72.70
26707;DHT22;14319;49.422;10.934;2023-05-10T10:34:28;16.80;72.80
26707;DHT22;14319;49.422;10.934;2023-05-10T10:36:29;16.80;72.60
26707;DHT22;14319;49.422;10.934;2023-05-10T10:41:02;16.50;74.00
26707;DHT22;14319;49.422;10.934;2023-05-10T10:43:25;16.50;75.10
26707;DHT22;14319;49.422;10.934;2023-05-10T10:45:26;16.60;73.50
26707;DHT22;14319;49.422;10.934;2023-05-10T10:47:28;16.40;72.80
26707;DHT22;14319;49.422;10.934;2023-05-10T10:49:52;16.60;73.70
26707;DHT22;14319;49.422;10.934;2023-05-10T10:52:26;16.40;73.50
26707;DHT22;14319;49.422;10.934;2023-05-10T10:54:32;16.40;74.80
26707;DHT22;14319;49.422;10.934;2023-05-10T10:56:33;16.70;75.20
26707;DHT22;14319;49.422;10.934;2023-05-10T10:58:34;16.50;72.60
26707;DHT22;14319;49.422;10.934;2023-05-10T11:00:38;16.50;73.50
26707;DHT22;14319;49.422;10.934;2023-05-10T11:04:43;17.10;73.40
26707;DHT22;14319;49.422;10.934;2023-05-10T11:06:46;17.30;72.10
26707;DHT22;14319;49.422;10.934;2023-05-10T11:08:47;17.30;71.80
26707;DHT22;14319;49.422;10.934;2023-05-10T11:10:51;17.00;72.40
26707;DHT22;14319;49.422;10.934;2023-05-10T11:13:00;17.10;72.80
26707;DHT22;14319;49.422;10.934;2023-05-10T11:15:09;16.70;73.40
26707;DHT22;14319;49.422;10.934;2023-05-10T11:17:26;16.60;74.40
26707;DHT22;14319;49.422;10.934;2023-05-10T11:19:28;16.40;75.50
26707;DHT22;14319;49.422;10.934;2023-05-10T11:21:33;16.20;76.10
26707;DHT22;14319;49.422;10.934;2023-05-10T11:25:44;15.90;77.40
26707;DHT22;14319;49.422;10.934;2023-05-10T11:27:47;15.90;79.00
26707;DHT22;14319;49.422;10.934;2023-05-10T11:29:51;16.00;80.30
26707;DHT22;14319;49.422;10.934;2023-05-10T11:31:52;16.10;77.80
26707;DHT22;14319;49.422;10.934;2023-05-10T11:33:54;16.10;77.60
26707;DHT22;14319;49.422;10.934;2023-05-10T11:35:55;16.10;77.80
26707;DHT22;14319;49.422;10.934;2023-05-10T11:37:56;16.10;77.70
26707;DHT22;14319;49.422;10.934;2023-05-10T11:39:56;16.20;76.20
26707;DHT22;14319;49.422;10.934;2023-05-10T11:41:57;16.30;75.60
26707;DHT22;14319;49.422;10.934;2023-05-10T11:43:58;16.20;76.40
26707;DHT22;14319;49.422;10.934;2023-05-10T11:45:59;16.30;77.30
26707;DHT22;14319;49.422;10.934;2023-05-10T11:48:01;16.20;77.20
26707;DHT22;14319;49.422;10.934;2023-05-10T11:50:01;16.10;76.70
26707;DHT22;14319;49.422;10.934;2023-05-10T11:52:06;16.10;77.40
26707;DHT22;14319;49.422;10.934;2023-05-10T11:54:09;16.10;74.80
26707;DHT22;14319;49.422;10.934;2023-05-10T11:56:11;16.10;75.10
26707;DHT22;14319;49.422;10.934;2023-05-10T11:58:11;16.10;72.90
26707;DHT22;14319;49.422;10.934;2023-05-10T12:00:13;16.00;72.60
26707;DHT22;14319;49.422;10.934;2023-05-10T12:02:16;16.10;73.50
26707;DHT22;14319;49.422;10.934;2023-05-10T12:04:16;16.20;72.50
26707;DHT22;14319;49.422;10.934;2023-05-10T12:06:18;16.40;70.90
26707;DHT22;14319;49.422;10.934;2023-05-10T12:08:23;16.50;72.00
26707;DHT22;14319;49.422;10.934;2023-05-10T12:10:26;16.80;71.20
26707;DHT22;14319;49.422;10.934;2023-05-10T12:12:27;16.70;69.10
26707;DHT22;14319;49.422;10.934;2023-05-10T12:14:27;16.50;68.20
26707;DHT22;14319;49.422;10.934;2023-05-10T12:16:29;16.50;69.20
26707;DHT22;14319;49.422;10.934;2023-05-10T12:18:30;16.70;70.40
26707;DHT22;14319;49.422;10.934;2023-05-10T12:20:31;16.90;68.60
26707;DHT22;14319;49.422;10.934;2023-05-10T12:22:33;16.90;68.70
26707;DHT22;14319;49.422;10.934;2023-05-10T12:24:36;16.60;71.00
26707;DHT22;14319;49.422;10.934;2023-05-10T12:26:38;16.60;71.40
26707;DHT22;14319;49.422;10.934;2023-05-10T12:28:39;16.60;73.30
26707;DHT22;14319;49.422;10.934;2023-05-10T12:30:40;16.80;72.80
26707;DHT22;14319;49.422;10.934;2023-05-10T12:32:41;16.90;72.80
26707;DHT22;14319;49.422;10.934;2023-05-10T12:34:42;17.00;73.70
26707;DHT22;14319;49.422;10.934;2023-05-10T12:36:42;17.00;73.60
26707;DHT22;14319;49.422;10.934;2023-05-10T12:38:45;16.90;72.70
26707;DHT22;14319;49.422;10.934;2023-05-10T12:40:48;16.70;73.60
26707;DHT22;14319;49.422;10.934;2023-05-10T12:42:48;16.70;74.50
26707;DHT22;14319;49.422;10.934;2023-05-10T12:44:49;16.80;73.80
26707;DHT22;14319;49.422;10.934;2023-05-10T12:46:50;16.80;73.90
26707;DHT22;14319;49.422;10.934;2023-05-10T12:48:50;16.90;73.80
26707;DHT22;14319;49.422;10.934;2023-05-10T12:50:55;17.00;72.40
26707;DHT22;14319;49.422;10.934;2023-05-10T12:52:55;17.10;73.60
26707;DHT22;14319;49.422;10.934;2023-05-10T12:54:56;17.10;71.20
26707;DHT22;14319;49.422;10.934;2023-05-10T12:56:56;17.00;72.40
26707;DHT22;14319;49.422;10.934;2023-05-10T12:58:57;17.20;72.40